sensor_id;sensor_type;location;lat;lon;timestamp;pressure;altitude;pressure_sealevel;temperature;humidity
19783;BME280;10051;40.294;-3.754;2023-09-19T00:01:15;94557.03;;;17.35;95.96
19783;BME280;10051;40.294;-3.754;2023-09-19T00:03:45;94548.41;;;17.20;97.08
19783;BME280;10051;40.294;-3.754;2023-09-19T00:06:10;94494.91;;;16.87;97.04
19783;BME280;10051;40.294;-3.754;2023-09-19T00:08:38;94487.09;;;16.90;96.28
19783;BME280;10051;40.294;-3.754;2023-09-19T00:11:04;94554.84;;;17.37;95.76
19783;BME280;10051;40.294;-3.754;2023-09-19T00:13:32;94519.97;;;17.12;95.12
19783;BME280;10051;40.294;-3.754;2023-09-19T00:15:59;94543.25;;;17.24;95.65
19783;BME280;10051;40.294;-3.754;2023-09-19T00:18:25;94559.09;;;17.38;95.57
19783;BME280;10051;40.294;-3.754;2023-09-19T00:21:01;94542.34;;;17.37;95.19
19783;BME280;10051;40.294;-3.754;2023-09-19T00:23:27;94558.75;;;17.48;94.86
19783;BME280;10051;40.294;-3.754;2023-09-19T00:25:53;94550.31;;;17.46;94.95
19783;BME280;10051;40.294;-3.754;2023-09-19T00:28:22;94547.81;;;17.41;94.72
19783;BME280;10051;40.294;-3.754;2023-09-19T00:30:48;94537.34;;;17.36;94.64
19783;BME280;10051;40.294;-3.754;2023-09-19T00:33:17;94566.25;;;17.46;94.90
19783;BME280;10051;40.294;-3.754;2023-09-19T00:35:51;94559.84;;;17.21;96.97
19783;BME280;10051;40.294;-3.754;2023-09-19T00:38:17;94555.88;;;17.01;98.97
19783;BME280;10051;40.294;-3.754;2023-09-19T00:40:49;94496.41;;;16.61;99.58
19783;BME280;10051;40.294;-3.754;2023-09-19T00:43:16;94545.56;;;16.99;98.85
19783;BME280;10051;40.294;-3.754;2023-09-19T00:45:44;94546.53;;;17.03;98.92
19783;BME280;10051;40.294;-3.754;2023-09-19T00:48:10;94564.31;;;17.03;98.56
19783;BME280;10051;40.294;-3.754;2023-09-19T00:50:38;94577.06;;;16.83;100.00
19783;BME280;10051;40.294;-3.754;2023-09-19T00:53:07;94516.44;;;16.27;100.00
19783;BME280;10051;40.294;-3.754;2023-09-19T00:55:34;94560.09;;;16.61;100.00
19783;BME280;10051;40.294;-3.754;2023-09-19T00:58:00;94557.97;;;16.72;100.00
19783;BME280;10051;40.294;-3.754;2023-09-19T01:00:26;94556.31;;;16.85;98.86
19783;BME280;10051;40.294;-3.754;2023-09-19T01:02:52;94562.75;;;17.02;97.90
19783;BME280;10051;40.294;-3.754;2023-09-19T01:05:18;94534.28;;;16.93;97.00
19783;BME280;10051;40.294;-3.754;2023-09-19T01:07:44;94565.59;;;17.23;96.56
19783;BME280;10051;40.294;-3.754;2023-09-19T01:10:14;94518.25;;;16.99;95.71
19783;BME280;10051;40.294;-3.754;2023-09-19T01:19:41;94561.72;;;17.29;94.91
19783;BME280;10051;40.294;-3.754;2023-09-19T01:30:59;94549.03;;;17.17;94.62
19783;BME280;10051;40.294;-3.754;2023-09-19T01:33:53;94547.66;;;17.20;94.62
19783;BME280;10051;40.294;-3.754;2023-09-19T01:36:16;94545.28;;;17.18;94.78
19783;BME280;10051;40.294;-3.754;2023-09-19T01:38:42;94534.34;;;17.11;94.87
19783;BME280;10051;40.294;-3.754;2023-09-19T01:41:11;94543.72;;;17.17;94.83
19783;BME280;10051;40.294;-3.754;2023-09-19T01:43:42;94496.47;;;16.88;94.62
19783;BME280;10051;40.294;-3.754;2023-09-19T01:46:21;94546.56;;;17.21;94.56
19783;BME280;10051;40.294;-3.754;2023-09-19T01:51:46;94499.28;;;16.91;94.58
19783;BME280;10051;40.294;-3.754;2023-09-19T01:54:19;94516.69;;;17.06;94.35
19783;BME280;10051;40.294;-3.754;2023-09-19T01:56:51;94546.25;;;17.22;94.56
19783;BME280;10051;40.294;-3.754;2023-09-19T01:59:25;94530.91;;;17.11;94.14
19783;BME280;10051;40.294;-3.754;2023-09-19T02:01:54;94517.16;;;17.00;94.35
19783;BME280;10051;40.294;-3.754;2023-09-19T02:04:20;94542.63;;;17.18;94.72
19783;BME280;10051;40.294;-3.754;2023-09-19T02:06:46;94533.88;;;17.09;94.58
19783;BME280;10051;40.294;-3.754;2023-09-19T02:09:15;94498.78;;;16.80;94.54
19783;BME280;10051;40.294;-3.754;2023-09-19T02:11:41;94545.75;;;17.12;95.03
19783;BME280;10051;40.294;-3.754;2023-09-19T02:14:07;94528.41;;;16.97;94.81
19783;BME280;10051;40.294;-3.754;2023-09-19T02:16:34;94542.63;;;17.09;94.69
19783;BME280;10051;40.294;-3.754;2023-09-19T02:19:00;94501.28;;;16.77;94.17
19783;BME280;10051;40.294;-3.754;2023-09-19T02:21:26;94464.53;;;16.53;93.81
19783;BME280;10051;40.294;-3.754;2023-09-19T02:23:55;94508.97;;;16.87;93.97
19783;BME280;10051;40.294;-3.754;2023-09-19T02:26:21;94514.75;;;16.89;94.31
19783;BME280;10051;40.294;-3.754;2023-09-19T02:28:50;94530.44;;;17.00;94.54
19783;BME280;10051;40.294;-3.754;2023-09-19T02:31:15;94501.75;;;16.79;94.54
19783;BME280;10051;40.294;-3.754;2023-09-19T02:33:42;94495.78;;;16.64;94.86
19783;BME280;10051;40.294;-3.754;2023-09-19T02:36:08;94531.44;;;16.81;96.38
19783;BME280;10051;40.294;-3.754;2023-09-19T02:38:34;94539.41;;;16.81;96.05
19783;BME280;10051;40.294;-3.754;2023-09-19T02:41:00;94528.13;;;16.67;97.14
19783;BME280;10051;40.294;-3.754;2023-09-19T02:43:25;94500.38;;;16.32;98.87
19783;BME280;10051;40.294;-3.754;2023-09-19T02:45:51;94503.00;;;16.24;100.00
19783;BME280;10051;40.294;-3.754;2023-09-19T02:48:20;94488.13;;;16.14;100.00
19783;BME280;10051;40.294;-3.754;2023-09-19T02:50:49;94518.38;;;16.44;99.71
19783;BME280;10051;40.294;-3.754;2023-09-19T02:53:15;94516.97;;;16.47;97.59
19783;BME280;10051;40.294;-3.754;2023-09-19T02:55:41;94531.09;;;16.65;97.42
19783;BME280;10051;40.294;-3.754;2023-09-19T02:58:07;94523.06;;;16.47;98.90
19783;BME280;10051;40.294;-3.754;2023-09-19T03:00:39;94523.66;;;16.44;99.06
19783;BME280;10051;40.294;-3.754;2023-09-19T03:03:07;94478.41;;;16.00;100.00
19783;BME280;10051;40.294;-3.754;2023-09-19T03:05:34;94508.56;;;16.13;100.00
19783;BME280;10051;40.294;-3.754;2023-09-19T03:08:00;94513.41;;;16.20;100.00
19783;BME280;10051;40.294;-3.754;2023-09-19T03:10:26;94509.19;;;16.19;100.00
19783;BME280;10051;40.294;-3.754;2023-09-19T03:12:53;94488.28;;;16.09;100.00
19783;BME280;10051;40.294;-3.754;2023-09-19T03:15:19;94466.69;;;16.01;100.00
19783;BME280;10051;40.294;-3.754;2023-09-19T03:17:46;94504.28;;;16.35;100.00
19783;BME280;10051;40.294;-3.754;2023-09-19T03:20:13;94480.00;;;16.10;100.00
19783;BME280;10051;40.294;-3.754;2023-09-19T03:22:39;94479.06;;;16.15;100.00
19783;BME280;10051;40.294;-3.754;2023-09-19T03:25:08;94496.50;;;16.39;99.38
19783;BME280;10051;40.294;-3.754;2023-09-19T03:27:43;94504.34;;;16.53;98.12
19783;BME280;10051;40.294;-3.754;2023-09-19T03:30:09;94494.53;;;16.53;97.12
19783;BME280;10051;40.294;-3.754;2023-09-19T03:32:44;94490.13;;;16.57;96.92
19783;BME280;10051;40.294;-3.754;2023-09-19T03:35:10;94507.97;;;16.65;96.49
19783;BME280;10051;40.294;-3.754;2023-09-19T03:37:36;94482.47;;;16.47;96.66
19783;BME280;10051;40.294;-3.754;2023-09-19T03:40:02;94468.25;;;16.43;96.33
19783;BME280;10051;40.294;-3.754;2023-09-19T03:42:31;94483.13;;;16.53;96.39
19783;BME280;10051;40.294;-3.754;2023-09-19T03:44:56;94454.19;;;16.33;96.65
19783;BME280;10051;40.294;-3.754;2023-09-19T03:47:22;94464.78;;;16.25;96.31
19783;BME280;10051;40.294;-3.754;2023-09-19T03:49:48;94499.31;;;16.42;97.14
19783;BME280;10051;40.294;-3.754;2023-09-19T03:52:13;94500.59;;;16.45;96.79
19783;BME280;10051;40.294;-3.754;2023-09-19T03:54:41;94461.94;;;16.21;96.65
19783;BME280;10051;40.294;-3.754;2023-09-19T03:57:06;94497.31;;;16.48;97.99
19783;BME280;10051;40.294;-3.754;2023-09-19T03:59:32;94442.53;;;16.12;99.54
19783;BME280;10051;40.294;-3.754;2023-09-19T04:01:57;94497.00;;;16.49;100.00
19783;BME280;10051;40.294;-3.754;2023-09-19T04:04:23;94499.84;;;16.53;100.00
19783;BME280;10051;40.294;-3.754;2023-09-19T04:06:53;94473.09;;;16.41;100.00
19783;BME280;10051;40.294;-3.754;2023-09-19T04:09:18;94452.59;;;16.24;100.00
19783;BME280;10051;40.294;-3.754;2023-09-19T04:11:44;94484.03;;;16.48;100.00
19783;BME280;10051;40.294;-3.754;2023-09-19T04:14:09;94443.84;;;16.23;100.00
19783;BME280;10051;40.294;-3.754;2023-09-19T04:16:35;94438.38;;;16.19;100.00
19783;BME280;10051;40.294;-3.754;2023-09-19T04:19:01;94458.06;;;16.36;100.00
19783;BME280;10051;40.294;-3.754;2023-09-19T04:21:26;94451.88;;;16.41;100.00
19783;BME280;10051;40.294;-3.754;2023-09-19T04:23:53;94474.84;;;16.54;100.00
19783;BME280;10051;40.294;-3.754;2023-09-19T04:26:19;94475.91;;;16.44;100.00
19783;BME280;10051;40.294;-3.754;2023-09-19T04:28:44;94472.44;;;16.35;100.00
19783;BME280;10051;40.294;-3.754;2023-09-19T04:31:11;94471.66;;;16.34;100.00
19783;BME280;10051;40.294;-3.754;2023-09-19T04:33:37;94435.22;;;16.09;100.00
19783;BME280;10051;40.294;-3.754;2023-09-19T04:36:03;94470.09;;;16.33;100.00
19783;BME280;10051;40.294;-3.754;2023-09-19T04:38:33;94446.00;;;16.21;100.00
19783;BME280;10051;40.294;-3.754;2023-09-19T04:40:59;94452.47;;;16.29;100.00
19783;BME280;10051;40.294;-3.754;2023-09-19T04:43:25;94443.34;;;16.21;100.00
19783;BME280;10051;40.294;-3.754;2023-09-19T04:45:50;94418.78;;;15.98;100.00
19783;BME280;10051;40.294;-3.754;2023-09-19T04:48:21;94461.66;;;16.31;100.00
19783;BME280;10051;40.294;-3.754;2023-09-19T04:50:48;94457.31;;;16.35;100.00
19783;BME280;10051;40.294;-3.754;2023-09-19T04:53:14;94437.56;;;16.19;100.00
19783;BME280;10051;40.294;-3.754;2023-09-19T04:55:39;94455.59;;;16.31;100.00
19783;BME280;10051;40.294;-3.754;2023-09-19T04:58:05;94442.84;;;16.10;100.00
19783;BME280;10051;40.294;-3.754;2023-09-19T05:00:31;94449.75;;;16.20;100.00
19783;BME280;10051;40.294;-3.754;2023-09-19T05:03:00;94451.78;;;16.14;100.00
19783;BME280;10051;40.294;-3.754;2023-09-19T05:05:26;94444.06;;;15.95;100.00
19783;BME280;10051;40.294;-3.754;2023-09-19T05:07:52;94444.94;;;15.90;100.00
19783;BME280;10051;40.294;-3.754;2023-09-19T05:10:19;94454.81;;;15.99;100.00
19783;BME280;10051;40.294;-3.754;2023-09-19T05:12:46;94447.19;;;15.97;100.00
19783;BME280;10051;40.294;-3.754;2023-09-19T05:15:13;94447.91;;;15.89;100.00
19783;BME280;10051;40.294;-3.754;2023-09-19T05:17:51;94430.78;;;15.72;100.00
19783;BME280;10051;40.294;-3.754;2023-09-19T05:20:17;94423.44;;;15.69;100.00
19783;BME280;10051;40.294;-3.754;2023-09-19T05:23:01;94418.63;;;15.71;100.00
19783;BME280;10051;40.294;-3.754;2023-09-19T05:25:31;94419.22;;;15.68;100.00
19783;BME280;10051;40.294;-3.754;2023-09-19T05:28:00;94437.31;;;15.89;100.00
19783;BME280;10051;40.294;-3.754;2023-09-19T05:30:28;94389.41;;;15.54;100.00
19783;BME280;10051;40.294;-3.754;2023-09-19T05:32:54;94447.06;;;15.80;100.00
19783;BME280;10051;40.294;-3.754;2023-09-19T05:35:21;94444.72;;;15.78;100.00
19783;BME280;10051;40.294;-3.754;2023-09-19T05:37:48;94435.13;;;15.68;100.00
19783;BME280;10051;40.294;-3.754;2023-09-19T05:40:17;94451.28;;;15.81;100.00
19783;BME280;10051;40.294;-3.754;2023-09-19T05:42:42;94415.78;;;15.59;100.00
19783;BME280;10051;40.294;-3.754;2023-09-19T05:45:10;94440.75;;;15.67;100.00
19783;BME280;10051;40.294;-3.754;2023-09-19T05:47:40;94426.25;;;15.64;100.00
19783;BME280;10051;40.294;-3.754;2023-09-19T05:50:06;94434.41;;;15.76;100.00
19783;BME280;10051;40.294;-3.754;2023-09-19T05:52:34;94450.50;;;15.80;100.00
19783;BME280;10051;40.294;-3.754;2023-09-19T05:55:00;94446.69;;;15.72;100.00
19783;BME280;10051;40.294;-3.754;2023-09-19T05:57:25;94415.66;;;15.41;100.00
19783;BME280;10051;40.294;-3.754;2023-09-19T05:59:51;94383.81;;;15.10;100.00
19783;BME280;10051;40.294;-3.754;2023-09-19T06:02:16;94406.34;;;15.21;100.00
19783;BME280;10051;40.294;-3.754;2023-09-19T06:04:45;94450.00;;;15.46;100.00
19783;BME280;10051;40.294;-3.754;2023-09-19T06:07:10;94441.50;;;15.36;100.00
19783;BME280;10051;40.294;-3.754;2023-09-19T06:09:36;94414.25;;;15.12;100.00
19783;BME280;10051;40.294;-3.754;2023-09-19T06:12:02;94464.09;;;15.56;100.00
19783;BME280;10051;40.294;-3.754;2023-09-19T06:14:29;94446.84;;;15.44;100.00
19783;BME280;10051;40.294;-3.754;2023-09-19T06:16:54;94416.50;;;15.28;100.00
19783;BME280;10051;40.294;-3.754;2023-09-19T06:19:20;94459.56;;;15.56;100.00
19783;BME280;10051;40.294;-3.754;2023-09-19T06:21:48;94417.44;;;15.23;100.00
19783;BME280;10051;40.294;-3.754;2023-09-19T06:24:14;94468.50;;;15.69;100.00
19783;BME280;10051;40.294;-3.754;2023-09-19T06:26:40;94473.22;;;15.72;100.00
19783;BME280;10051;40.294;-3.754;2023-09-19T06:29:06;94475.56;;;15.74;100.00
19783;BME280;10051;40.294;-3.754;2023-09-19T06:31:35;94440.88;;;15.61;100.00
19783;BME280;10051;40.294;-3.754;2023-09-19T06:34:00;94479.97;;;16.01;100.00
19783;BME280;10051;40.294;-3.754;2023-09-19T06:36:26;94402.16;;;15.52;100.00
19783;BME280;10051;40.294;-3.754;2023-09-19T06:38:52;94411.56;;;15.58;100.00
19783;BME280;10051;40.294;-3.754;2023-09-19T06:41:17;94444.88;;;15.82;100.00
19783;BME280;10051;40.294;-3.754;2023-09-19T06:43:43;94441.06;;;15.88;100.00
19783;BME280;10051;40.294;-3.754;2023-09-19T06:46:09;94414.03;;;15.86;100.00
19783;BME280;10051;40.294;-3.754;2023-09-19T06:48:35;94459.75;;;16.23;100.00
19783;BME280;10051;40.294;-3.754;2023-09-19T06:51:01;94493.59;;;16.58;100.00
19783;BME280;10051;40.294;-3.754;2023-09-19T06:53:33;94450.78;;;16.42;100.00
19783;BME280;10051;40.294;-3.754;2023-09-19T06:56:00;94496.16;;;16.89;100.00
19783;BME280;10051;40.294;-3.754;2023-09-19T06:58:25;94414.84;;;16.35;100.00
19783;BME280;10051;40.294;-3.754;2023-09-19T07:00:51;94450.50;;;16.70;100.00
19783;BME280;10051;40.294;-3.754;2023-09-19T07:03:16;94507.16;;;16.97;100.00
19783;BME280;10051;40.294;-3.754;2023-09-19T07:05:47;94505.59;;;17.13;99.19
19783;BME280;10051;40.294;-3.754;2023-09-19T07:08:13;94476.16;;;16.83;99.93
19783;BME280;10051;40.294;-3.754;2023-09-19T07:10:41;94424.88;;;16.56;100.00
19783;BME280;10051;40.294;-3.754;2023-09-19T07:13:14;94512.78;;;17.21;99.90
19783;BME280;10051;40.294;-3.754;2023-09-19T07:15:43;94470.06;;;16.83;99.66
19783;BME280;10051;40.294;-3.754;2023-09-19T07:18:15;94517.00;;;17.14;99.75
19783;BME280;10051;40.294;-3.754;2023-09-19T07:20:42;94503.25;;;17.20;99.07
19783;BME280;10051;40.294;-3.754;2023-09-19T07:23:11;94487.94;;;17.17;98.30
19783;BME280;10051;40.294;-3.754;2023-09-19T07:25:39;94479.66;;;17.28;96.02
19783;BME280;10051;40.294;-3.754;2023-09-19T07:28:05;94513.56;;;17.48;95.73
19783;BME280;10051;40.294;-3.754;2023-09-19T07:30:30;94501.84;;;17.49;95.95
19783;BME280;10051;40.294;-3.754;2023-09-19T07:32:56;94509.16;;;17.88;93.89
19783;BME280;10051;40.294;-3.754;2023-09-19T07:35:22;94461.75;;;17.81;91.81
19783;BME280;10051;40.294;-3.754;2023-09-19T07:37:48;94448.56;;;18.02;90.92
19783;BME280;10051;40.294;-3.754;2023-09-19T07:40:18;94481.69;;;18.22;89.69
19783;BME280;10051;40.294;-3.754;2023-09-19T07:42:44;94497.72;;;18.43;88.74
19783;BME280;10051;40.294;-3.754;2023-09-19T07:45:12;94498.13;;;18.63;87.56
19783;BME280;10051;40.294;-3.754;2023-09-19T07:47:48;94507.88;;;18.80;87.27
19783;BME280;10051;40.294;-3.754;2023-09-19T07:50:15;94468.69;;;18.81;87.02
19783;BME280;10051;40.294;-3.754;2023-09-19T07:52:44;94508.94;;;19.18;85.43
19783;BME280;10051;40.294;-3.754;2023-09-19T07:55:10;94508.16;;;18.87;85.45
19783;BME280;10051;40.294;-3.754;2023-09-19T07:57:42;94470.34;;;18.34;86.85
19783;BME280;10051;40.294;-3.754;2023-09-19T08:00:09;94495.06;;;18.43;87.16
19783;BME280;10051;40.294;-3.754;2023-09-19T08:02:41;94518.66;;;18.54;88.16
19783;BME280;10051;40.294;-3.754;2023-09-19T08:05:11;94499.34;;;18.66;93.89
19783;BME280;10051;40.294;-3.754;2023-09-19T08:07:38;94525.28;;;18.78;90.10
19783;BME280;10051;40.294;-3.754;2023-09-19T08:10:05;94422.28;;;17.92;88.48
19783;BME280;10051;40.294;-3.754;2023-09-19T08:12:39;94525.19;;;18.95;92.59
19783;BME280;10051;40.294;-3.754;2023-09-19T08:15:13;94525.13;;;19.13;88.95
19783;BME280;10051;40.294;-3.754;2023-09-19T08:17:39;94455.50;;;18.63;85.92
19783;BME280;10051;40.294;-3.754;2023-09-19T08:20:05;94492.28;;;19.21;89.50
19783;BME280;10051;40.294;-3.754;2023-09-19T08:22:31;94494.72;;;19.35;87.34
19783;BME280;10051;40.294;-3.754;2023-09-19T08:24:57;94504.00;;;19.50;85.89
19783;BME280;10051;40.294;-3.754;2023-09-19T08:27:25;94489.31;;;19.77;88.39
19783;BME280;10051;40.294;-3.754;2023-09-19T08:29:53;94490.47;;;19.89;83.60
19783;BME280;10051;40.294;-3.754;2023-09-19T08:32:18;94537.63;;;20.31;83.00
19783;BME280;10051;40.294;-3.754;2023-09-19T08:34:50;94525.63;;;20.49;81.08
19783;BME280;10051;40.294;-3.754;2023-09-19T08:37:15;94446.69;;;20.02;81.65
19783;BME280;10051;40.294;-3.754;2023-09-19T08:39:42;94481.75;;;20.26;80.67
19783;BME280;10051;40.294;-3.754;2023-09-19T08:42:08;94444.50;;;20.17;77.53
19783;BME280;10051;40.294;-3.754;2023-09-19T08:44:37;94510.47;;;20.54;77.63
19783;BME280;10051;40.294;-3.754;2023-09-19T08:47:09;94539.00;;;20.99;75.47
19783;BME280;10051;40.294;-3.754;2023-09-19T08:49:51;94535.66;;;21.02;74.70
19783;BME280;10051;40.294;-3.754;2023-09-19T08:52:52;94536.09;;;21.17;75.53
19783;BME280;10051;40.294;-3.754;2023-09-19T08:55:27;94499.13;;;21.06;75.68
19783;BME280;10051;40.294;-3.754;2023-09-19T08:58:00;94505.63;;;21.34;76.15
19783;BME280;10051;40.294;-3.754;2023-09-19T09:00:27;94507.59;;;21.49;73.87
19783;BME280;10051;40.294;-3.754;2023-09-19T09:02:54;94517.03;;;21.59;72.33
19783;BME280;10051;40.294;-3.754;2023-09-19T09:05:22;94529.09;;;21.65;73.57
19783;BME280;10051;40.294;-3.754;2023-09-19T09:07:49;94522.22;;;21.80;71.41
19783;BME280;10051;40.294;-3.754;2023-09-19T09:10:20;94495.63;;;21.59;71.60
19783;BME280;10051;40.294;-3.754;2023-09-19T09:12:53;94529.16;;;21.97;70.04
19783;BME280;10051;40.294;-3.754;2023-09-19T09:15:21;94521.03;;;21.94;70.27
19783;BME280;10051;40.294;-3.754;2023-09-19T09:17:49;94450.31;;;21.50;69.83
19783;BME280;10051;40.294;-3.754;2023-09-19T09:20:16;94494.16;;;21.90;70.53
19783;BME280;10051;40.294;-3.754;2023-09-19T09:22:56;94503.44;;;22.09;69.49
19783;BME280;10051;40.294;-3.754;2023-09-19T09:25:55;94528.06;;;22.14;70.28
19783;BME280;10051;40.294;-3.754;2023-09-19T09:28:27;94525.84;;;22.33;69.11
19783;BME280;10051;40.294;-3.754;2023-09-19T09:30:54;94506.75;;;22.18;68.12
19783;BME280;10051;40.294;-3.754;2023-09-19T09:33:20;94497.34;;;22.24;69.24
19783;BME280;10051;40.294;-3.754;2023-09-19T09:35:58;94494.44;;;22.46;67.48
19783;BME280;10051;40.294;-3.754;2023-09-19T09:38:27;94465.88;;;22.37;66.10
19783;BME280;10051;40.294;-3.754;2023-09-19T09:40:58;94494.56;;;22.37;65.61
19783;BME280;10051;40.294;-3.754;2023-09-19T09:43:37;94487.38;;;22.41;65.54
19783;BME280;10051;40.294;-3.754;2023-09-19T09:46:17;94464.66;;;22.35;64.18
19783;BME280;10051;40.294;-3.754;2023-09-19T09:51:43;94463.66;;;22.23;64.66
19783;BME280;10051;40.294;-3.754;2023-09-19T09:54:13;94506.44;;;22.68;63.94
19783;BME280;10051;40.294;-3.754;2023-09-19T09:57:01;94480.16;;;22.57;62.58
19783;BME280;10051;40.294;-3.754;2023-09-19T09:59:51;94503.19;;;22.78;62.28
19783;BME280;10051;40.294;-3.754;2023-09-19T10:02:35;94506.50;;;22.71;62.95
19783;BME280;10051;40.294;-3.754;2023-09-19T10:05:21;94503.06;;;22.71;61.21
19783;BME280;10051;40.294;-3.754;2023-09-19T10:07:54;94478.13;;;22.86;62.09
19783;BME280;10051;40.294;-3.754;2023-09-19T10:10:31;94453.75;;;22.76;61.79
19783;BME280;10051;40.294;-3.754;2023-09-19T10:13:21;94496.47;;;23.20;60.14
19783;BME280;10051;40.294;-3.754;2023-09-19T10:15:49;94507.38;;;23.27;61.31
19783;BME280;10051;40.294;-3.754;2023-09-19T10:18:26;94430.06;;;22.78;59.62
19783;BME280;10051;40.294;-3.754;2023-09-19T10:20:53;94483.78;;;23.01;60.54
19783;BME280;10051;40.294;-3.754;2023-09-19T10:23:21;94471.47;;;22.80;60.74
19783;BME280;10051;40.294;-3.754;2023-09-19T10:25:51;94453.72;;;22.92;60.41
19783;BME280;10051;40.294;-3.754;2023-09-19T10:28:19;94423.91;;;22.93;58.54
19783;BME280;10051;40.294;-3.754;2023-09-19T10:30:49;94482.03;;;23.44;59.87
19783;BME280;10051;40.294;-3.754;2023-09-19T10:33:25;94483.22;;;23.47;58.32
19783;BME280;10051;40.294;-3.754;2023-09-19T10:35:58;94477.50;;;23.49;57.08
19783;BME280;10051;40.294;-3.754;2023-09-19T10:38:26;94439.31;;;23.36;59.13
19783;BME280;10051;40.294;-3.754;2023-09-19T10:40:55;94479.03;;;23.89;59.16
19783;BME280;10051;40.294;-3.754;2023-09-19T10:43:26;94475.31;;;24.17;57.87
19783;BME280;10051;40.294;-3.754;2023-09-19T10:46:00;94447.22;;;23.91;55.39
19783;BME280;10051;40.294;-3.754;2023-09-19T10:48:26;94448.28;;;24.06;54.48
19783;BME280;10051;40.294;-3.754;2023-09-19T10:51:07;94408.66;;;23.80;56.81
19783;BME280;10051;40.294;-3.754;2023-09-19T10:53:51;94449.25;;;24.17;57.36
19783;BME280;10051;40.294;-3.754;2023-09-19T10:56:25;94458.84;;;24.18;55.67
19783;BME280;10051;40.294;-3.754;2023-09-19T10:59:06;94460.19;;;24.32;54.36
19783;BME280;10051;40.294;-3.754;2023-09-19T11:01:43;94398.50;;;24.12;54.41
19783;BME280;10051;40.294;-3.754;2023-09-19T11:04:35;94446.53;;;24.41;56.20
19783;BME280;10051;40.294;-3.754;2023-09-19T11:07:11;94453.94;;;24.24;54.09
19783;BME280;10051;40.294;-3.754;2023-09-19T11:09:50;94425.47;;;23.96;52.73
19783;BME280;10051;40.294;-3.754;2023-09-19T11:15:07;94390.47;;;23.69;56.09
19783;BME280;10051;40.294;-3.754;2023-09-19T11:17:37;94442.31;;;24.16;55.63
19783;BME280;10051;40.294;-3.754;2023-09-19T11:30:52;94426.13;;;24.63;50.55
19783;BME280;10051;40.294;-3.754;2023-09-19T11:33:32;94397.44;;;24.44;50.95
19783;BME280;10051;40.294;-3.754;2023-09-19T11:36:12;94418.31;;;24.27;51.27
19783;BME280;10051;40.294;-3.754;2023-09-19T11:43:48;94386.09;;;24.04;49.77
19783;BME280;10051;40.294;-3.754;2023-09-19T11:46:16;94358.56;;;24.11;49.22
19783;BME280;10051;40.294;-3.754;2023-09-19T11:48:47;94348.81;;;24.26;47.92
19783;BME280;10051;40.294;-3.754;2023-09-19T11:51:19;94399.63;;;24.88;48.31
19783;BME280;10051;40.294;-3.754;2023-09-19T11:53:48;94359.50;;;24.76;45.25
19783;BME280;10051;40.294;-3.754;2023-09-19T11:56:18;94377.09;;;25.00;45.25
19783;BME280;10051;40.294;-3.754;2023-09-19T11:58:45;94344.38;;;24.94;47.40
19783;BME280;10051;40.294;-3.754;2023-09-19T12:01:15;94282.69;;;24.75;47.22
19783;BME280;10051;40.294;-3.754;2023-09-19T12:03:47;94357.19;;;25.43;44.03
19783;BME280;10051;40.294;-3.754;2023-09-19T12:06:18;94350.53;;;24.99;43.62
19783;BME280;10051;40.294;-3.754;2023-09-19T12:08:44;94376.19;;;25.23;45.40
19783;BME280;10051;40.294;-3.754;2023-09-19T12:11:15;94339.22;;;25.16;45.27
19783;BME280;10051;40.294;-3.754;2023-09-19T12:13:45;94357.63;;;25.45;44.16
19783;BME280;10051;40.294;-3.754;2023-09-19T12:16:15;94339.47;;;25.42;43.50
19783;BME280;10051;40.294;-3.754;2023-09-19T12:18:45;94361.78;;;25.42;43.65
19783;BME280;10051;40.294;-3.754;2023-09-19T12:21:30;94312.25;;;25.09;41.55
19783;BME280;10051;40.294;-3.754;2023-09-19T12:26:39;94327.75;;;24.85;40.05
19783;BME280;10051;40.294;-3.754;2023-09-19T12:29:20;94313.19;;;24.59;41.19
19783;BME280;10051;40.294;-3.754;2023-09-19T12:31:56;94298.59;;;24.60;43.36
19783;BME280;10051;40.294;-3.754;2023-09-19T12:34:27;94355.38;;;25.16;42.31
19783;BME280;10051;40.294;-3.754;2023-09-19T12:39:52;94326.09;;;25.11;41.11
19783;BME280;10051;40.294;-3.754;2023-09-19T12:42:25;94270.66;;;24.69;43.19
19783;BME280;10051;40.294;-3.754;2023-09-19T12:44:58;94334.81;;;25.01;44.07
19783;BME280;10051;40.294;-3.754;2023-09-19T12:47:27;94321.75;;;24.99;45.12
19783;BME280;10051;40.294;-3.754;2023-09-19T12:50:07;94319.16;;;25.06;44.73
19783;BME280;10051;40.294;-3.754;2023-09-19T12:52:41;94314.28;;;25.19;43.84
19783;BME280;10051;40.294;-3.754;2023-09-19T12:55:19;94318.91;;;25.22;43.31
19783;BME280;10051;40.294;-3.754;2023-09-19T12:58:13;94316.72;;;25.32;42.34
19783;BME280;10051;40.294;-3.754;2023-09-19T13:00:45;94308.41;;;25.10;43.08
19783;BME280;10051;40.294;-3.754;2023-09-19T13:05:56;94305.69;;;25.44;42.52
19783;BME280;10051;40.294;-3.754;2023-09-19T13:08:34;94267.94;;;25.37;41.40
19783;BME280;10051;40.294;-3.754;2023-09-19T13:11:17;94259.09;;;25.40;39.57
19783;BME280;10051;40.294;-3.754;2023-09-19T13:13:49;94288.81;;;25.47;40.28
19783;BME280;10051;40.294;-3.754;2023-09-19T13:16:20;94247.09;;;25.27;39.21
19783;BME280;10051;40.294;-3.754;2023-09-19T13:21:28;94255.03;;;25.53;39.29
19783;BME280;10051;40.294;-3.754;2023-09-19T13:23:55;94229.41;;;25.29;38.15
19783;BME280;10051;40.294;-3.754;2023-09-19T13:26:30;94242.69;;;25.49;36.82
19783;BME280;10051;40.294;-3.754;2023-09-19T13:28:55;94263.63;;;25.70;37.93
19783;BME280;10051;40.294;-3.754;2023-09-19T13:31:21;94200.31;;;25.42;36.51
19783;BME280;10051;40.294;-3.754;2023-09-19T13:33:48;94255.78;;;25.50;36.78
19783;BME280;10051;40.294;-3.754;2023-09-19T13:36:14;94249.13;;;25.37;36.34
19783;BME280;10051;40.294;-3.754;2023-09-19T13:38:42;94245.22;;;25.31;37.50
19783;BME280;10051;40.294;-3.754;2023-09-19T13:41:09;94234.25;;;25.09;36.78
19783;BME280;10051;40.294;-3.754;2023-09-19T13:43:36;94212.84;;;24.82;36.61
19783;BME280;10051;40.294;-3.754;2023-09-19T13:46:02;94267.25;;;25.06;37.01
19783;BME280;10051;40.294;-3.754;2023-09-19T13:48:28;94222.16;;;24.58;37.19
19783;BME280;10051;40.294;-3.754;2023-09-19T13:50:55;94207.06;;;24.46;38.00